メインページ
METAR-TAF:

METAR-TAF

空港 :

ベオグラード, セルビア

ベオグラード・ニコラ・テスラ空港

緯度: 44-49N, 経度: 020-17E, 海抜: 96m

現時点の気象観測

当レポートは10分前の14:30(UTC)に作成
北東の風 5kt、からの間で変化する
気温 26°C
湿度 39%
気圧 1005 hPa
視程10km以上
1,500メートル以下は雲なし、積乱雲なし

METAR: LYBE 261430Z 04005KT 350V090 CAVOK 26/11 Q1005 NOSIG

時間: 16:40 (14:40 UTC)

予報

当レポートは3時間40分前の11:00(UTC)に作成
予報は26日の 12時(UTC)から 27日の 12時(UTC)まで有効
の風 6kt
視程10km以上
高度4000ftの雲は散在している
26日の 18時(UTC)から 26日の 20時(UTC)まで徐々に
南西の風 10kt
確率 30% :
26日の 19時(UTC)から 26日の 21時(UTC)まで一時的に
視程: 5000m
高度2700ftの雲は散在している, 積乱雲.
高度3300ftの千切れ雲あり
激しい雷雨, 雨
27日の 02時(UTC)から 27日の 04時(UTC)まで徐々に
北西の風 12kt

TAF: LYBE 261100Z 2612/2712 10006KT 9999 SCT040 TX26/2614Z TN15/2703Z BECMG 2618/2620 23010KT PROB30 TEMPO 2619/2621 5000 TSRA SCT027CB BKN033 BECMG 2702/2704 32012KT

4,000以上の空港の気象観測と天気予報(METAR報とTAF報)

利用可能な観測所は地図上に黄色い丸と赤い丸で示す。

丸の上にカーソルを重ねると観測所名を参照できる。

次にクリックすると気象観測と天気予報を参照できる。

マップの切り替え:黒色「×」印の緑ボタンをクリックして拡大、「-」印の緑ボタンをクリックして縮小、緑色の三角印をクリックして隣りの地図に切り替え


METAR-TAF: